Time;durP1;ratioP1;P1;durP2;ratioP2;P2;SDS_P1;SDS_P2;PMS_P1;PMS_P2;Temp;Humidity;BMP_temperature;BMP_pressure;BME280_temperature;BME280_humidity;BME280_pressure;Samples;Min_cycle;Max_cycle;Signal;HPM_P1;HPM_P2
2023/05/01 00:03:10;;;;;;;7.60;5.40;;;3.20;99.90;;;;;;12569469;23;20167;-83
2023/05/01 00:08:13;;;;;;;8.73;6.07;;;3.10;99.90;;;;;;12554225;23;20250;-83
2023/05/01 00:13:20;;;;;;;9.97;6.30;;;3.00;99.90;;;;;;12554341;23;20174;-83
2023/05/01 00:18:23;;;;;;;9.47;5.93;;;2.80;99.90;;;;;;12571737;23;20190;-83
2023/05/01 00:23:25;;;;;;;8.80;5.77;;;2.60;99.90;;;;;;12554818;23;20182;-83
2023/05/01 00:28:28;;;;;;;8.90;6.10;;;2.70;99.90;;;;;;12551734;23;20533;-83
2023/05/01 00:33:30;;;;;;;7.30;5.23;;;2.80;99.90;;;;;;12552163;23;20249;-83
2023/05/01 00:38:32;;;;;;;10.33;6.77;;;2.70;99.90;;;;;;12575472;23;20202;-83
2023/05/01 00:43:35;;;;;;;9.77;5.53;;;2.70;99.90;;;;;;12554043;23;20564;-83
2023/05/01 00:48:38;;;;;;;11.60;6.73;;;2.50;99.90;;;;;;12551846;23;20182;-83
2023/05/01 00:53:42;;;;;;;9.83;6.33;;;2.40;99.90;;;;;;12574648;23;20632;-83
2023/05/01 00:58:52;;;;;;;9.43;6.07;;;2.30;99.90;;;;;;12569104;23;20237;-83
2023/05/01 01:03:55;;;;;;;11.00;6.17;;;2.30;99.90;;;;;;12553623;23;20210;-83
2023/05/01 01:09:28;;;;;;;6.23;5.17;;;2.50;99.90;;;;;;12528419;23;20385;-83
2023/05/01 01:14:54;;;;;;;12.47;5.90;;;2.40;99.90;;;;;;12571494;23;20170;-83
2023/05/01 01:20:29;;;;;;;6.27;4.73;;;2.20;99.90;;;;;;12551445;23;20198;-83
2023/05/01 01:25:40;;;;;;;8.73;5.27;;;2.20;99.90;;;;;;12553421;23;20575;-83
2023/05/01 01:30:43;;;;;;;7.10;5.23;;;2.40;99.90;;;;;;12551609;23;20517;-83
2023/05/01 01:36:01;;;;;;;12.70;6.47;;;2.30;99.90;;;;;;12528424;23;20187;-83
2023/05/01 01:41:12;;;;;;;8.10;5.93;;;2.20;99.90;;;;;;12563511;23;20245;-83
2023/05/01 01:46:16;;;;;;;7.17;5.30;;;2.10;99.90;;;;;;12575164;23;20175;-83
2023/05/01 01:51:22;;;;;;;6.50;5.10;;;2.10;99.90;;;;;;12551319;23;20182;-83
2023/05/01 01:56:26;;;;;;;8.60;5.73;;;2.20;99.90;;;;;;12551264;23;20529;-83
2023/05/01 02:01:29;;;;;;;7.30;5.50;;;2.20;99.90;;;;;;12527538;23;20234;-83
2023/05/01 02:06:33;;;;;;;10.33;6.03;;;2.00;99.90;;;;;;12550276;23;20178;-83
2023/05/01 02:11:38;;;;;;;9.37;5.33;;;1.70;99.90;;;;;;12529015;23;20211;-83
2023/05/01 02:16:41;;;;;;;11.07;5.23;;;1.90;99.90;;;;;;12556156;23;20218;-83
2023/05/01 02:21:45;;;;;;;7.50;5.27;;;1.80;99.90;;;;;;12554327;23;20636;-83
2023/05/01 02:26:54;;;;;;;8.33;5.63;;;1.90;99.90;;;;;;12554253;23;20240;-83
2023/05/01 02:31:56;;;;;;;7.37;5.93;;;2.00;99.90;;;;;;12570933;23;20195;-83
2023/05/01 02:36:59;;;;;;;8.43;6.00;;;1.90;99.90;;;;;;12553799;23;20183;-83
2023/05/01 02:42:03;;;;;;;7.10;5.53;;;1.80;99.90;;;;;;12562616;23;20264;-83
2023/05/01 02:47:07;;;;;;;7.30;5.00;;;1.80;99.90;;;;;;12556201;23;20170;-83
2023/05/01 02:52:12;;;;;;;10.07;6.40;;;1.70;99.90;;;;;;12554388;23;20178;-83
2023/05/01 02:57:16;;;;;;;9.00;4.83;;;1.80;99.90;;;;;;12553804;23;20187;-83
2023/05/01 03:02:19;;;;;;;6.53;4.90;;;1.60;99.90;;;;;;12578113;23;20267;-83
2023/05/01 03:07:22;;;;;;;6.87;5.23;;;1.60;99.90;;;;;;12556136;23;20191;-83
2023/05/01 03:12:24;;;;;;;9.83;6.37;;;1.60;99.90;;;;;;12554068;23;20744;-83
2023/05/01 03:17:26;;;;;;;8.57;6.10;;;1.60;99.90;;;;;;12556067;23;20250;-83
2023/05/01 03:22:31;;;;;;;8.40;5.27;;;1.50;99.90;;;;;;12552869;23;20451;-83
2023/05/01 03:27:34;;;;;;;7.93;6.07;;;1.40;99.90;;;;;;12577137;23;20494;-82
2023/05/01 03:32:37;;;;;;;12.00;6.13;;;1.50;99.90;;;;;;12553275;23;20179;-83
2023/05/01 03:37:42;;;;;;;9.67;5.73;;;1.50;99.90;;;;;;12555038;23;20498;-83
2023/05/01 03:42:47;;;;;;;7.67;5.63;;;1.30;99.90;;;;;;12576868;23;20178;-82
2023/05/01 03:47:56;;;;;;;10.50;6.40;;;1.40;99.90;;;;;;12576921;23;20490;-82
2023/05/01 03:52:59;;;;;;;9.47;6.30;;;1.50;99.90;;;;;;12576618;23;20234;-82
2023/05/01 03:58:01;;;;;;;8.23;5.57;;;1.60;99.90;;;;;;12576460;23;20537;-82
2023/05/01 04:03:04;;;;;;;7.33;5.23;;;1.40;99.90;;;;;;12552558;23;20238;-83
2023/05/01 04:08:09;;;;;;;6.70;5.17;;;1.50;99.90;;;;;;12528480;23;20511;-82
2023/05/01 04:13:11;;;;;;;6.10;5.37;;;1.70;99.90;;;;;;12551754;23;20245;-82
2023/05/01 04:18:14;;;;;;;7.77;5.53;;;1.80;99.90;;;;;;12551698;23;20245;-82
2023/05/01 04:23:17;;;;;;;5.00;4.50;;;2.00;99.90;;;;;;12551724;23;20241;-82
2023/05/01 04:28:20;;;;;;;6.53;4.10;;;2.10;99.90;;;;;;12552620;23;20304;-82
2023/05/01 04:33:22;;;;;;;11.40;6.43;;;2.70;99.90;;;;;;12576234;23;20189;-82
2023/05/01 04:38:25;;;;;;;7.10;4.47;;;3.10;99.90;;;;;;12527152;23;20265;-82
2023/05/01 04:43:29;;;;;;;6.13;5.03;;;3.20;99.90;;;;;;12528438;23;20182;-82
2023/05/01 04:48:32;;;;;;;8.73;6.00;;;3.30;99.90;;;;;;12575621;23;20178;-82
2023/05/01 04:53:35;;;;;;;7.37;5.20;;;3.50;99.90;;;;;;12552524;23;20171;-82
2023/05/01 04:58:41;;;;;;;7.77;4.63;;;3.60;99.90;;;;;;12528058;23;20209;-82
2023/05/01 05:03:48;;;;;;;11.93;7.00;;;4.00;99.90;;;;;;12575851;23;20179;-83
2023/05/01 05:08:52;;;;;;;8.47;4.90;;;4.30;99.90;;;;;;12527768;23;20206;-83
2023/05/01 05:13:55;;;;;;;10.80;6.30;;;4.60;99.90;;;;;;12552389;23;20193;-83
2023/05/01 05:18:58;;;;;;;8.20;5.37;;;4.70;99.90;;;;;;12551588;23;20202;-83
2023/05/01 05:24:03;;;;;;;10.87;5.73;;;5.10;99.90;;;;;;12551186;23;20181;-83
2023/05/01 05:29:06;;;;;;;8.90;6.07;;;5.40;99.90;;;;;;12551627;23;20218;-83
2023/05/01 05:34:08;;;;;;;16.30;8.23;;;5.70;99.90;;;;;;12553841;23;20685;-83
2023/05/01 05:39:12;;;;;;;8.30;4.93;;;6.00;99.90;;;;;;12551440;23;20257;-83
2023/05/01 05:44:14;;;;;;;5.17;4.47;;;6.60;99.90;;;;;;12545346;23;20557;-83
2023/05/01 05:49:17;;;;;;;9.50;6.70;;;7.00;99.90;;;;;;12555250;23;20178;-83
2023/05/01 05:54:20;;;;;;;8.43;6.10;;;7.30;99.90;;;;;;12555150;23;20183;-83
2023/05/01 05:59:23;;;;;;;12.17;6.70;;;7.50;99.90;;;;;;12578515;23;20588;-83
2023/05/01 06:04:25;;;;;;;6.33;4.00;;;7.50;99.90;;;;;;12578562;23;20198;-83
2023/05/01 06:09:29;;;;;;;9.93;6.87;;;7.90;99.90;;;;;;12554242;23;20202;-83
2023/05/01 06:14:32;;;;;;;5.07;4.00;;;8.00;99.90;;;;;;12556390;23;20506;-83
2023/05/01 06:19:35;;;;;;;8.87;5.50;;;8.30;99.90;;;;;;12555134;23;20266;-83
2023/05/01 06:24:42;;;;;;;8.30;5.63;;;8.70;99.90;;;;;;12554429;23;20182;-83
2023/05/01 06:29:45;;;;;;;3.27;2.63;;;9.00;99.90;;;;;;12554407;23;20182;-83
2023/05/01 06:34:48;;;;;;;4.63;3.60;;;9.20;99.90;;;;;;12556514;23;20183;-83
2023/05/01 06:39:50;;;;;;;12.00;6.80;;;9.60;99.90;;;;;;12577793;23;20206;-83
2023/05/01 06:44:53;;;;;;;11.50;5.67;;;9.70;99.90;;;;;;12555905;23;20167;-83
2023/05/01 06:49:56;;;;;;;5.03;4.17;;;9.80;99.90;;;;;;12555919;23;20564;-83
2023/05/01 06:54:59;;;;;;;9.97;6.67;;;10.10;99.90;;;;;;12577737;23;20245;-83
2023/05/01 07:00:02;;;;;;;13.40;6.20;;;10.60;99.90;;;;;;12553644;23;20202;-83
2023/05/01 07:05:05;;;;;;;8.67;5.33;;;10.70;98.30;;;;;;12554925;23;20182;-83
2023/05/01 07:10:08;;;;;;;5.87;4.73;;;10.90;96.60;;;;;;12554857;23;20261;-83
2023/05/01 07:15:10;;;;;;;6.93;5.00;;;11.20;96.50;;;;;;12577165;23;20182;-83
2023/05/01 07:20:15;;;;;;;5.43;4.33;;;11.40;94.30;;;;;;12555278;23;20190;-83
2023/05/01 07:25:19;;;;;;;5.07;3.10;;;11.50;92.80;;;;;;12552508;23;20182;-83
2023/05/01 07:30:21;;;;;;;7.60;4.93;;;12.10;95.60;;;;;;12555584;23;20218;-83
2023/05/01 07:35:24;;;;;;;3.27;2.97;;;12.20;90.00;;;;;;12554479;23;20463;-83
2023/05/01 07:40:26;;;;;;;5.30;3.00;;;12.40;90.30;;;;;;12555154;23;20206;-83
2023/05/01 07:45:29;;;;;;;3.37;2.73;;;;;;;;;;12553746;23;20259;-83
2023/05/01 07:50:32;;;;;;;7.27;3.93;;;13.00;91.90;;;;;;12554589;23;20243;-83
2023/05/01 07:55:34;;;;;;;6.07;3.57;;;13.10;75.40;;;;;;12554589;23;20204;-83
2023/05/01 08:00:37;;;;;;;7.80;4.33;;;13.20;78.30;;;;;;12554382;23;20190;-83
2023/05/01 08:05:40;;;;;;;5.80;3.37;;;13.50;74.60;;;;;;12555069;23;20182;-83
2023/05/01 08:10:43;;;;;;;6.40;2.93;;;13.80;78.20;;;;;;12552351;23;20222;-83
2023/05/01 08:15:46;;;;;;;10.13;4.27;;;14.00;83.00;;;;;;12554816;23;20215;-83
2023/05/01 08:20:49;;;;;;;8.03;4.47;;;14.10;68.60;;;;;;12575772;23;20673;-83
2023/05/01 08:25:52;;;;;;;7.50;4.80;;;14.30;75.30;;;;;;12566868;23;20230;-83
2023/05/01 08:30:55;;;;;;;9.90;4.83;;;14.40;62.10;;;;;;12553407;23;20182;-83
2023/05/01 08:35:58;;;;;;;10.43;4.83;;;14.40;53.30;;;;;;12555174;23;20182;-83
2023/05/01 08:41:02;;;;;;;6.03;4.03;;;14.40;50.80;;;;;;12553651;23;20187;-83
2023/05/01 08:46:08;;;;;;;4.60;3.40;;;14.50;50.20;;;;;;12552935;23;20182;-83
2023/05/01 08:51:12;;;;;;;7.53;5.03;;;14.60;54.10;;;;;;12553671;23;20174;-83
2023/05/01 08:56:16;;;;;;;9.30;3.30;;;14.70;48.70;;;;;;12551650;23;20220;-83
2023/05/01 09:01:21;;;;;;;5.10;3.97;;;14.80;47.80;;;;;;12553852;23;20525;-83
2023/05/01 09:06:27;;;;;;;8.13;4.10;;;14.90;45.70;;;;;;12529517;23;20181;-83
2023/05/01 09:11:30;;;;;;;8.67;4.17;;;14.90;45.00;;;;;;12551263;23;20242;-83
2023/05/01 09:16:32;;;;;;;5.90;4.03;;;15.00;43.10;;;;;;12550769;23;20229;-83
2023/05/01 09:21:35;;;;;;;4.83;2.57;;;;;;;;;;12552654;23;20261;-83
2023/05/01 09:26:42;;;;;;;3.00;2.70;;;15.20;50.00;;;;;;12553043;23;20226;-83
2023/05/01 09:31:44;;;;;;;6.90;4.43;;;15.30;55.90;;;;;;12553771;23;20486;-83
2023/05/01 09:36:47;;;;;;;3.17;2.73;;;15.40;43.50;;;;;;12553361;23;20501;-83
2023/05/01 09:41:51;;;;;;;4.37;3.37;;;15.50;44.60;;;;;;12527985;23;20724;-83
2023/05/01 09:46:54;;;;;;;4.23;3.83;;;15.60;53.50;;;;;;12528807;23;20518;-83
2023/05/01 09:52:10;;;;;;;9.87;4.90;;;15.70;44.40;;;;;;12551028;23;20242;-83
2023/05/01 09:57:14;;;;;;;14.73;6.10;;;15.70;41.50;;;;;;12560774;23;20179;-83
2023/05/01 10:02:29;;;;;;;12.20;5.00;;;15.80;39.50;;;;;;12553092;23;20660;-83
2023/05/01 10:07:33;;;;;;;6.77;3.97;;;15.80;39.70;;;;;;12507284;23;1094622;-83
2023/05/01 10:12:36;;;;;;;6.63;4.27;;;15.90;38.40;;;;;;12554986;23;20183;-83
2023/05/01 10:17:40;;;;;;;5.20;4.63;;;15.90;35.00;;;;;;12532037;23;20184;-83
2023/05/01 10:22:43;;;;;;;4.43;3.37;;;16.00;41.50;;;;;;12556467;23;20190;-83
2023/05/01 10:27:46;;;;;;;9.17;4.13;;;16.10;44.60;;;;;;12556239;23;20214;-83
2023/05/01 10:32:48;;;;;;;4.70;3.90;;;16.20;37.90;;;;;;12556289;23;20229;-83
2023/05/01 10:38:03;;;;;;;9.17;4.03;;;16.20;34.00;;;;;;12556322;23;20182;-83
2023/05/01 10:43:27;;;;;;;6.30;4.00;;;16.30;31.00;;;;;;12530538;23;20206;-82
2023/05/01 10:48:39;;;;;;;7.60;4.20;;;16.40;33.70;;;;;;12554853;23;20630;-83
2023/05/01 10:53:46;;;;;;;6.70;4.20;;;16.50;32.20;;;;;;12555537;23;20581;-83
2023/05/01 10:58:52;;;;;;;6.17;3.83;;;16.50;31.00;;;;;;12553837;23;20697;-83
2023/05/01 11:03:56;;;;;;;9.13;3.83;;;16.50;32.50;;;;;;12556198;23;20237;-83
2023/05/01 11:09:00;;;;;;;5.40;3.73;;;16.60;29.90;;;;;;12555741;23;20522;-83
2023/05/01 11:14:03;;;;;;;4.00;3.13;;;16.70;37.30;;;;;;12554401;23;20681;-83
2023/05/01 11:19:10;;;;;;;7.30;4.00;;;16.80;36.60;;;;;;12529767;23;20214;-83
2023/05/01 11:24:13;;;;;;;6.13;2.93;;;16.90;28.00;;;;;;12555033;23;20237;-83
2023/05/01 11:29:16;;;;;;;16.50;9.03;;;16.90;32.50;;;;;;12552657;23;20184;-83
2023/05/01 11:34:19;;;;;;;2.50;2.13;;;16.90;29.30;;;;;;12555341;23;20178;-83
2023/05/01 11:39:21;;;;;;;6.77;4.03;;;17.10;32.20;;;;;;12555042;23;20234;-83
2023/05/01 11:44:24;;;;;;;4.60;2.90;;;17.20;30.00;;;;;;12554630;23;20264;-83
2023/05/01 11:49:27;;;;;;;5.30;4.23;;;17.20;29.60;;;;;;12554328;23;20487;-83
2023/05/01 11:54:30;;;;;;;9.00;3.93;;;17.20;24.90;;;;;;12553971;23;20231;-83
2023/05/01 11:59:32;;;;;;;8.77;4.40;;;17.20;25.30;;;;;;12592718;23;20171;-83
2023/05/01 12:04:35;;;;;;;5.97;3.10;;;17.20;25.70;;;;;;12554274;23;20177;-83
2023/05/01 12:09:40;;;;;;;6.87;3.90;;;17.30;28.00;;;;;;12554159;23;20234;-83
2023/05/01 12:14:43;;;;;;;9.03;3.53;;;17.30;27.80;;;;;;12554354;23;20497;-83
2023/05/01 12:19:50;;;;;;;8.87;4.87;;;17.40;27.40;;;;;;12554416;23;20196;-83
2023/05/01 12:24:52;;;;;;;7.47;3.80;;;17.30;24.90;;;;;;12569842;23;20175;-83
2023/05/01 12:29:55;;;;;;;7.40;3.97;;;17.40;28.50;;;;;;12570952;23;20170;-83
2023/05/01 12:34:58;;;;;;;8.10;3.90;;;17.30;21.30;;;;;;12554003;23;20190;-83
2023/05/01 12:40:02;;;;;;;9.67;3.67;;;17.40;22.90;;;;;;12553760;23;20174;-83
2023/05/01 12:45:05;;;;;;;2.90;2.40;;;17.50;22.40;;;;;;12553975;23;20164;-83
2023/05/01 12:50:08;;;;;;;5.77;3.77;;;17.50;29.40;;;;;;12553290;23;20212;-83
2023/05/01 12:55:11;;;;;;;4.07;3.33;;;17.50;30.10;;;;;;12553687;23;20644;-83
2023/05/01 13:00:14;;;;;;;5.60;3.80;;;17.50;25.90;;;;;;12553541;23;20214;-83
2023/05/01 13:05:17;;;;;;;3.37;2.43;;;17.60;26.60;;;;;;12553765;23;20486;-83
2023/05/01 13:10:30;;;;;;;7.63;3.53;;;17.70;32.00;;;;;;12551027;23;20569;-83
2023/05/01 13:15:33;;;;;;;5.83;3.13;;;17.70;23.80;;;;;;12552734;23;20183;-83
2023/05/01 13:20:37;;;;;;;4.83;2.80;;;17.80;25.20;;;;;;12551144;23;20203;-83
2023/05/01 13:25:40;;;;;;;6.50;2.93;;;17.80;27.40;;;;;;12553136;23;20179;-83
2023/05/01 13:30:43;;;;;;;3.13;2.83;;;17.90;20.70;;;;;;12553219;23;20171;-83
2023/05/01 13:35:45;;;;;;;3.40;2.53;;;18.00;27.00;;;;;;12553143;23;20203;-83
2023/05/01 13:40:48;;;;;;;7.47;3.60;;;17.90;30.10;;;;;;12567689;23;20214;-83
2023/05/01 13:45:56;;;;;;;3.50;2.70;;;17.90;25.20;;;;;;12553011;23;20237;-83
2023/05/01 13:50:58;;;;;;;3.87;2.27;;;17.90;22.40;;;;;;12569122;23;20172;-83
2023/05/01 13:56:05;;;;;;;3.90;2.47;;;18.00;24.00;;;;;;12551341;23;20235;-83
2023/05/01 14:01:15;;;;;;;7.33;4.23;;;17.90;29.40;;;;;;12569226;23;20192;-83
2023/05/01 14:06:19;;;;;;;5.03;3.60;;;17.90;23.50;;;;;;12554683;23;20233;-83
2023/05/01 14:11:22;;;;;;;3.47;2.87;;;17.80;20.60;;;;;;12555777;23;20598;-83
2023/05/01 14:16:26;;;;;;;2.80;2.17;;;17.80;25.70;;;;;;12556523;23;20552;-83
2023/05/01 14:21:29;;;;;;;3.10;2.27;;;17.80;29.00;;;;;;12556572;23;20533;-83
2023/05/01 14:26:31;;;;;;;7.53;3.10;;;17.80;30.50;;;;;;12557004;23;20768;-83
2023/05/01 14:31:35;;;;;;;6.27;3.90;;;17.70;24.70;;;;;;12556165;23;20171;-83
2023/05/01 14:36:38;;;;;;;7.40;4.07;;;17.70;19.40;;;;;;12556752;23;20713;-83
2023/05/01 14:41:41;;;;;;;8.73;4.37;;;17.70;19.20;;;;;;12556018;23;20191;-83
2023/05/01 14:46:48;;;;;;;5.83;3.47;;;17.80;19.10;;;;;;12556151;23;20171;-83
2023/05/01 14:51:52;;;;;;;5.60;3.23;;;17.80;21.00;;;;;;12572488;23;20194;-83
2023/05/01 14:56:55;;;;;;;3.67;2.43;;;17.80;20.50;;;;;;12554364;23;20563;-83
2023/05/01 15:01:57;;;;;;;3.03;2.70;;;17.80;22.00;;;;;;12555515;23;20265;-83
2023/05/01 15:07:00;;;;;;;10.30;2.53;;;17.80;24.10;;;;;;12529803;23;20182;-83
2023/05/01 15:12:02;;;;;;;3.53;2.67;;;17.90;25.60;;;;;;12554537;23;20602;-83
2023/05/01 15:17:09;;;;;;;3.13;2.27;;;17.90;29.70;;;;;;12552636;23;20241;-83
2023/05/01 15:22:11;;;;;;;6.67;1.90;;;17.90;28.20;;;;;;12555140;23;20253;-83
2023/05/01 15:27:16;;;;;;;3.10;2.53;;;17.80;29.70;;;;;;12555564;23;20174;-83
2023/05/01 15:32:19;;;;;;;3.73;2.60;;;17.70;28.50;;;;;;12554866;23;20222;-83
2023/05/01 15:37:22;;;;;;;3.30;2.57;;;17.50;27.90;;;;;;12553169;23;20237;-83
2023/05/01 15:42:25;;;;;;;6.50;2.40;;;17.40;28.00;;;;;;12553697;23;20249;-83
2023/05/01 15:47:27;;;;;;;6.33;3.13;;;17.40;28.90;;;;;;12576741;23;20183;-83
2023/05/01 15:52:30;;;;;;;3.67;2.53;;;17.30;26.00;;;;;;12554752;23;20507;-83
2023/05/01 15:57:33;;;;;;;3.00;2.10;;;17.40;30.00;;;;;;12553049;23;20210;-83
2023/05/01 16:02:36;;;;;;;2.67;2.47;;;17.50;30.60;;;;;;12555063;23;20287;-83
2023/05/01 16:07:39;;;;;;;4.47;1.97;;;17.50;33.00;;;;;;12554098;23;20637;-83
2023/05/01 16:12:41;;;;;;;4.43;2.07;;;17.50;32.40;;;;;;12551980;23;20242;-83
2023/05/01 16:17:45;;;;;;;1.93;1.73;;;17.50;29.50;;;;;;12554154;23;20171;-83
2023/05/01 16:22:48;;;;;;;2.70;2.33;;;17.60;35.20;;;;;;12553429;23;20234;-83
2023/05/01 16:27:50;;;;;;;2.33;1.93;;;17.60;37.50;;;;;;12561821;23;20171;-83
2023/05/01 16:32:53;;;;;;;2.37;2.17;;;17.50;34.90;;;;;;12554427;23;20705;-83
2023/05/01 16:37:58;;;;;;;3.03;2.20;;;17.50;36.80;;;;;;12554090;23;20171;-83
2023/05/01 16:43:01;;;;;;;4.40;2.83;;;17.50;30.20;;;;;;12526526;23;20541;-83
2023/05/01 16:48:04;;;;;;;3.30;2.40;;;17.40;29.80;;;;;;12551794;23;20567;-83
2023/05/01 16:53:06;;;;;;;5.63;2.40;;;17.20;30.10;;;;;;12553796;23;20175;-83
2023/05/01 16:58:09;;;;;;;4.60;2.53;;;17.10;25.70;;;;;;12553599;23;20174;-83
2023/05/01 17:03:12;;;;;;;3.23;2.83;;;16.90;30.70;;;;;;12551360;23;20752;-83
2023/05/01 17:08:15;;;;;;;5.03;3.10;;;16.60;26.20;;;;;;12553444;23;20263;-83
2023/05/01 17:13:18;;;;;;;5.30;2.27;;;16.40;27.60;;;;;;12552365;23;20242;-83
2023/05/01 17:18:20;;;;;;;12.30;3.63;;;16.20;28.40;;;;;;12553477;23;20170;-83
2023/05/01 17:23:26;;;;;;;10.37;3.00;;;16.00;26.70;;;;;;12554047;23;20202;-83
2023/05/01 17:28:29;;;;;;;7.60;2.97;;;15.70;28.90;;;;;;12552990;23;20716;-83
2023/05/01 17:33:31;;;;;;;4.70;2.23;;;15.50;29.90;;;;;;12553389;23;20562;-83
2023/05/01 17:38:34;;;;;;;10.63;3.70;;;15.30;30.10;;;;;;12552875;23;20182;-83
2023/05/01 17:43:37;;;;;;;11.67;3.13;;;15.10;31.10;;;;;;12554507;23;20584;-83
2023/05/01 17:48:43;;;;;;;14.47;3.63;;;14.80;32.20;;;;;;12557121;23;20545;-83
2023/05/01 17:53:45;;;;;;;14.80;5.70;;;14.50;34.20;;;;;;12571924;23;20226;-83
2023/05/01 17:58:48;;;;;;;22.73;5.43;;;14.10;37.40;;;;;;12531861;23;20174;-83
2023/05/01 18:03:50;;;;;;;68.40;36.73;;;13.80;42.80;;;;;;12556796;23;20528;-83
2023/05/01 18:08:53;;;;;;;27.23;12.10;;;;;;;;;;12553866;23;20669;-83
2023/05/01 18:13:57;;;;;;;10.73;4.83;;;13.20;49.20;;;;;;12556468;23;20571;-83
2023/05/01 18:18:59;;;;;;;13.00;4.43;;;12.80;56.20;;;;;;12557007;23;20183;-83
2023/05/01 18:24:02;;;;;;;16.23;5.73;;;12.50;59.60;;;;;;12556023;23;20204;-83
2023/05/01 18:29:04;;;;;;;13.37;7.70;;;12.20;65.60;;;;;;12557291;23;20174;-83
2023/05/01 18:34:09;;;;;;;16.90;7.50;;;11.80;68.30;;;;;;12556213;23;20520;-83
2023/05/01 18:39:11;;;;;;;17.67;9.13;;;11.50;73.70;;;;;;12556108;23;20198;-83
2023/05/01 18:44:14;;;;;;;26.33;14.97;;;11.20;81.10;;;;;;12554017;23;20538;-83
2023/05/01 18:49:22;;;;;;;30.37;14.77;;;10.90;87.70;;;;;;12553621;23;20230;-83
2023/05/01 18:54:24;;;;;;;35.60;13.97;;;10.70;91.70;;;;;;12573365;23;20174;-83
2023/05/01 18:59:29;;;;;;;19.83;13.13;;;10.50;93.10;;;;;;12555802;23;20179;-83
2023/05/01 19:04:39;;;;;;;19.97;11.70;;;10.30;94.90;;;;;;12547771;23;20238;-83
2023/05/01 19:09:58;;;;;;;17.77;8.33;;;10.10;96.70;;;;;;12556089;23;20583;-83
2023/05/01 19:15:01;;;;;;;17.13;7.73;;;9.90;97.50;;;;;;12554803;23;20215;-83
2023/05/01 19:20:04;;;;;;;20.70;9.83;;;9.70;98.30;;;;;;12556125;23;20190;-83
2023/05/01 19:25:07;;;;;;;30.40;16.20;;;9.60;99.90;;;;;;12530096;23;20194;-83
2023/05/01 19:30:09;;;;;;;38.77;13.67;;;9.50;99.90;;;;;;12553793;23;20234;-83
2023/05/01 19:35:12;;;;;;;24.77;15.40;;;9.50;99.90;;;;;;12555115;23;20554;-82
2023/05/01 19:40:15;;;;;;;33.10;13.97;;;9.50;99.90;;;;;;12554716;23;20541;-83
2023/05/01 19:45:17;;;;;;;19.67;11.37;;;9.40;99.90;;;;;;12571138;23;20241;-84
2023/05/01 19:50:20;;;;;;;23.00;10.07;;;9.30;99.90;;;;;;12552770;23;20234;-83
2023/05/01 19:55:22;;;;;;;18.27;8.70;;;9.10;99.90;;;;;;12570803;23;20203;-83
2023/05/01 20:00:26;;;;;;;13.97;8.10;;;9.10;99.90;;;;;;12555311;23;20186;-83
2023/05/01 20:05:31;;;;;;;20.50;9.10;;;9.00;99.90;;;;;;12554600;23;20206;-83
2023/05/01 20:10:33;;;;;;;14.87;9.63;;;9.00;99.90;;;;;;12561822;23;20194;-83
2023/05/01 20:15:37;;;;;;;12.03;7.10;;;8.80;99.90;;;;;;12571516;23;20170;-83
2023/05/01 20:20:40;;;;;;;12.80;8.00;;;8.80;99.90;;;;;;12530541;23;20236;-83
2023/05/01 20:25:42;;;;;;;19.57;9.47;;;8.80;99.90;;;;;;12552964;23;20242;-83
2023/05/01 20:30:47;;;;;;;16.47;9.37;;;8.70;99.90;;;;;;12553462;23;20187;-83
2023/05/01 20:35:50;;;;;;;15.67;9.73;;;8.70;99.90;;;;;;12553221;23;20210;-83
2023/05/01 20:40:52;;;;;;;20.70;10.27;;;8.60;99.90;;;;;;12553954;23;20178;-83
2023/05/01 20:45:55;;;;;;;18.80;10.90;;;8.60;99.90;;;;;;12528625;23;20261;-83
2023/05/01 20:50:57;;;;;;;22.00;11.97;;;8.50;99.90;;;;;;12552556;23;20546;-83
2023/05/01 20:56:00;;;;;;;23.73;12.00;;;8.50;99.90;;;;;;12527367;23;20186;-83
2023/05/01 21:01:03;;;;;;;14.57;11.70;;;8.50;99.90;;;;;;12553555;23;20171;-83
2023/05/01 21:06:06;;;;;;;21.13;12.63;;;8.50;99.90;;;;;;12528554;23;20199;-83
2023/05/01 21:11:09;;;;;;;25.37;12.47;;;8.40;99.90;;;;;;12526877;23;20203;-83
2023/05/01 21:16:14;;;;;;;23.53;12.37;;;8.50;99.90;;;;;;12528547;23;20245;-83
2023/05/01 21:21:17;;;;;;;22.17;10.90;;;8.40;99.90;;;;;;12553374;23;20614;-83
2023/05/01 21:26:20;;;;;;;13.63;8.10;;;8.50;99.90;;;;;;12553135;23;20194;-83
2023/05/01 21:31:28;;;;;;;19.87;10.93;;;8.40;99.90;;;;;;12553227;23;20556;-83
2023/05/01 21:36:31;;;;;;;11.13;6.13;;;8.50;99.90;;;;;;12570537;23;20502;-83
2023/05/01 21:41:34;;;;;;;17.07;10.80;;;8.50;99.90;;;;;;12567711;23;20207;-83
2023/05/01 21:46:37;;;;;;;18.43;9.53;;;8.40;99.90;;;;;;12528299;23;20582;-83
2023/05/01 21:51:40;;;;;;;15.30;9.30;;;8.30;99.90;;;;;;12553426;23;20203;-83
2023/05/01 21:56:42;;;;;;;18.30;9.33;;;8.40;99.90;;;;;;12553028;23;20174;-83
2023/05/01 22:01:45;;;;;;;16.30;10.77;;;8.40;99.90;;;;;;12553258;23;20550;-83
2023/05/01 22:06:48;;;;;;;13.80;9.07;;;8.50;99.90;;;;;;12552634;23;20206;-83
2023/05/01 22:11:51;;;;;;;19.63;10.60;;;8.30;99.90;;;;;;12554961;23;20227;-83
2023/05/01 22:16:54;;;;;;;16.90;10.03;;;8.30;99.90;;;;;;12553217;23;20195;-83
2023/05/01 22:21:56;;;;;;;22.50;10.93;;;8.20;99.90;;;;;;12550708;23;20210;-83
2023/05/01 22:26:59;;;;;;;13.67;7.47;;;8.10;99.90;;;;;;12553012;23;20182;-83
2023/05/01 22:32:02;;;;;;;20.17;10.70;;;8.10;99.90;;;;;;12556384;23;20166;-83
2023/05/01 22:37:05;;;;;;;17.00;10.43;;;8.10;99.90;;;;;;12572286;23;20166;-83
2023/05/01 22:42:08;;;;;;;16.27;9.63;;;8.10;99.90;;;;;;12554622;23;20210;-83
2023/05/01 22:47:10;;;;;;;11.37;8.83;;;8.00;99.90;;;;;;12556432;23;20248;-83
2023/05/01 22:52:13;;;;;;;14.83;10.00;;;7.90;99.90;;;;;;12555649;23;20178;-83
2023/05/01 22:57:16;;;;;;;15.10;9.27;;;7.80;99.90;;;;;;12530662;23;20257;-83
2023/05/01 23:02:19;;;;;;;17.83;10.80;;;7.70;99.90;;;;;;12556770;23;20166;-83
2023/05/01 23:07:21;;;;;;;17.73;9.27;;;7.70;99.90;;;;;;12531093;23;20214;-83
2023/05/01 23:12:24;;;;;;;12.13;8.90;;;7.80;99.90;;;;;;12555978;23;20258;-83
2023/05/01 23:17:33;;;;;;;17.50;10.70;;;7.90;99.90;;;;;;12554512;23;20166;-83
2023/05/01 23:22:37;;;;;;;15.90;9.50;;;7.90;99.90;;;;;;12555524;23;20716;-83
2023/05/01 23:27:41;;;;;;;17.53;9.97;;;8.00;99.90;;;;;;12555983;23;20258;-83
2023/05/01 23:32:44;;;;;;;15.67;9.40;;;8.00;99.90;;;;;;12555510;23;20170;-83
2023/05/01 23:37:48;;;;;;;13.97;9.37;;;8.00;99.90;;;;;;12556059;23;20513;-83
2023/05/01 23:42:50;;;;;;;17.40;9.30;;;8.10;99.90;;;;;;12553224;23;20581;-83
2023/05/01 23:47:53;;;;;;;18.23;9.00;;;8.30;99.90;;;;;;12555776;23;20178;-83
2023/05/01 23:52:56;;;;;;;18.57;9.37;;;8.30;99.90;;;;;;12555254;23;20190;-83
2023/05/01 23:57:59;;;;;;;15.67;9.83;;;8.40;99.90;;;;;;12553795;23;20216;-83
